createdAt,value
2023-04-23T00:00:58.099Z,100543.66
2023-04-23T00:03:29.722Z,100538.56
2023-04-23T00:06:01.063Z,100535.38
2023-04-23T00:08:35.092Z,100538.47
2023-04-23T00:11:06.411Z,100539.13
2023-04-23T00:13:36.616Z,100545.28
2023-04-23T00:16:07.456Z,100547.56
2023-04-23T00:18:37.859Z,100536.19
2023-04-23T00:21:08.893Z,100538.03
2023-04-23T00:23:42.062Z,100538.81
2023-04-23T00:26:12.088Z,100528.56
2023-04-23T00:28:42.173Z,100535.53
2023-04-23T00:31:12.190Z,100534.25
2023-04-23T00:33:42.188Z,100532.22
2023-04-23T00:36:12.241Z,100533.38
2023-04-23T00:38:44.782Z,100532.13
2023-04-23T00:41:15.057Z,100528.94
2023-04-23T00:43:45.978Z,100527.34
2023-04-23T00:46:16.987Z,100524.16
2023-04-23T00:48:48.546Z,100510.09
2023-04-23T00:53:53.190Z,100527.13
2023-04-23T00:56:24.107Z,100518.50
2023-04-23T00:58:54.700Z,100517.22
2023-04-23T01:01:26.325Z,100509.38
2023-04-23T01:03:57.012Z,100509.75
2023-04-23T01:06:29.130Z,100515.97
2023-04-23T01:09:02.066Z,100517.91
2023-04-23T01:11:32.634Z,100515.97
2023-04-23T01:14:02.619Z,100513.25
2023-04-23T01:16:32.606Z,100510.53
2023-04-23T01:19:02.634Z,100515.19
2023-04-23T01:21:33.455Z,100516.69
2023-04-23T01:24:06.413Z,100513.94
2023-04-23T01:26:37.035Z,100510.44
2023-04-23T01:29:07.132Z,100511.22
2023-04-23T01:31:37.290Z,100503.03
2023-04-23T01:34:07.475Z,100501.47
2023-04-23T01:36:38.716Z,100494.88
2023-04-23T01:39:11.823Z,100487.81
2023-04-23T01:41:43.039Z,100493.28
2023-04-23T01:44:13.190Z,100493.28
2023-04-23T01:46:43.457Z,100491.66
2023-04-23T01:49:13.888Z,100494.72
2023-04-23T01:51:44.246Z,100492.34
2023-04-23T01:54:16.803Z,100498.94
2023-04-23T01:56:47.230Z,100494.63
2023-04-23T01:59:17.068Z,100485.19
2023-04-23T02:01:49.229Z,100485.09
2023-04-23T02:04:20.354Z,100493.94
2023-04-23T02:06:53.122Z,100497.34
2023-04-23T02:09:25.620Z,100497.13
2023-04-23T02:11:55.501Z,100489.16
2023-04-23T02:14:25.761Z,100485.06
2023-04-23T02:16:56.131Z,100493.13
2023-04-23T02:19:26.690Z,100494.03
2023-04-23T02:21:56.766Z,100495.03
2023-04-23T02:24:29.413Z,100499.91
2023-04-23T02:26:59.903Z,100494.34
2023-04-23T02:29:29.789Z,100493.44
2023-04-23T02:31:59.961Z,100497.94
2023-04-23T02:34:30.024Z,100495.44
2023-04-23T02:36:59.866Z,100489.03
2023-04-23T02:39:32.660Z,100483.50
2023-04-23T02:42:02.785Z,100481.75
2023-04-23T02:44:32.688Z,100484.72
2023-04-23T02:47:02.745Z,100483.78
2023-04-23T02:49:32.844Z,100479.03
2023-04-23T02:52:02.730Z,100489.44
2023-04-23T02:54:37.259Z,100485.81
2023-04-23T02:57:07.563Z,100475.13
2023-04-23T02:59:37.551Z,100484.75
2023-04-23T03:02:07.528Z,100474.84
2023-04-23T03:04:37.749Z,100481.44
2023-04-23T03:07:07.680Z,100471.19
2023-04-23T03:09:40.477Z,100469.63
2023-04-23T03:12:10.765Z,100471.88
2023-04-23T03:14:41.245Z,100468.72
2023-04-23T03:17:11.414Z,100469.84
2023-04-23T03:19:41.305Z,100465.50
2023-04-23T03:22:11.316Z,100469.34
2023-04-23T03:24:43.990Z,100461.53
2023-04-23T03:27:13.948Z,100464.94
2023-04-23T03:29:44.296Z,100462.75
2023-04-23T03:32:15.672Z,100463.41
2023-04-23T03:34:45.555Z,100452.25
2023-04-23T03:37:17.206Z,100456.78
2023-04-23T03:39:49.871Z,100451.06
2023-04-23T03:42:19.914Z,100449.34
2023-04-23T03:44:49.832Z,100453.19
2023-04-23T03:47:19.736Z,100449.22
2023-04-23T03:49:49.773Z,100438.34
2023-04-23T03:52:20.002Z,100443.78
2023-04-23T03:54:52.672Z,100443.78
2023-04-23T03:57:24.502Z,100450.31
2023-04-23T03:59:54.362Z,100440.56
2023-04-23T04:02:24.683Z,100433.22
2023-04-23T04:04:55.450Z,100437.53
2023-04-23T04:07:26.136Z,100429.69
2023-04-23T04:09:58.690Z,100437.84
2023-04-23T04:12:28.775Z,100433.53
2023-04-23T04:14:58.953Z,100436.59
2023-04-23T04:17:29.008Z,100431.50
2023-04-23T04:19:58.938Z,100421.28
2023-04-23T04:22:28.846Z,100431.69
2023-04-23T04:25:01.324Z,100424.66
2023-04-23T04:27:33.638Z,100430.09
2023-04-23T04:30:05.754Z,100433.28
2023-04-23T04:32:36.044Z,100438.72
2023-04-23T04:35:05.977Z,100435.53
2023-04-23T04:37:37.079Z,100434.13
2023-04-23T04:40:11.793Z,100437.53
2023-04-23T04:42:42.978Z,100425.72
2023-04-23T04:45:14.082Z,100425.72
2023-04-23T04:47:44.097Z,100429.56
2023-04-23T04:50:14.745Z,100438.16
2023-04-23T04:52:47.808Z,100443.28
2023-04-23T04:55:20.326Z,100436.59
2023-04-23T04:57:50.426Z,100440.56
2023-04-23T05:00:28.021Z,100444.56
2023-04-23T05:02:58.858Z,100441.63
2023-04-23T05:05:30.416Z,100444.50
2023-04-23T05:08:02.608Z,100439.16
2023-04-23T05:10:35.307Z,100438.97
2023-04-23T05:13:05.305Z,100445.03
2023-04-23T05:15:35.198Z,100442.91
2023-04-23T05:18:06.847Z,100440.97
2023-04-23T05:20:37.013Z,100444.97
2023-04-23T05:23:07.186Z,100448.13
2023-04-23T05:25:39.953Z,100445.09
2023-04-23T05:28:10.152Z,100440.44
2023-04-23T05:30:40.153Z,100440.44
2023-04-23T05:33:10.254Z,100442.16
2023-04-23T05:35:40.301Z,100444.34
2023-04-23T05:38:10.411Z,100445.94
2023-04-23T05:40:43.040Z,100436.31
2023-04-23T05:43:13.190Z,100439.50
2023-04-23T05:45:46.268Z,100431.00
2023-04-23T05:48:16.314Z,100431.00
2023-04-23T05:50:46.671Z,100432.59
2023-04-23T05:53:18.209Z,100424.09
2023-04-23T05:55:50.932Z,100427.13
2023-04-23T05:58:21.037Z,100427.63
2023-04-23T06:00:50.995Z,100428.53
2023-04-23T06:03:21.288Z,100431.25
2023-04-23T06:05:51.505Z,100431.25
2023-04-23T06:08:23.281Z,100433.97
2023-04-23T06:10:57.237Z,100439.22
2023-04-23T06:13:28.579Z,100434.56
2023-04-23T06:15:58.470Z,100434.72
2023-04-23T06:18:28.534Z,100438.34
2023-04-23T06:20:58.375Z,100448.34
2023-04-23T06:23:29.459Z,100436.78
2023-04-23T06:26:02.074Z,100432.94
2023-04-23T06:28:31.976Z,100439.28
2023-04-23T06:31:02.894Z,100440.22
2023-04-23T06:33:33.038Z,100433.44
2023-04-23T06:36:03.059Z,100435.16
2023-04-23T06:38:32.990Z,100439.22
2023-04-23T06:41:06.470Z,100430.75
2023-04-23T06:43:36.495Z,100426.88
2023-04-23T06:46:06.416Z,100426.63
2023-04-23T06:48:37.807Z,100424.84
2023-04-23T06:51:08.345Z,100419.22
2023-04-23T06:53:39.149Z,100415.78
2023-04-23T06:56:12.140Z,100413.50
2023-04-23T06:58:42.042Z,100420.81
2023-04-23T07:01:12.164Z,100415.13
2023-04-23T07:03:45.320Z,100422.72
2023-04-23T07:06:15.392Z,100414.19
2023-04-23T07:08:45.979Z,100406.44
2023-04-23T07:11:18.554Z,100411.81
2023-04-23T07:13:49.268Z,100412.28
2023-04-23T07:16:21.694Z,100405.78
2023-04-23T07:18:52.890Z,100395.78
2023-04-23T07:21:22.863Z,100395.78
2023-04-23T07:23:52.842Z,100395.75
2023-04-23T07:26:25.658Z,100384.75
2023-04-23T07:28:55.879Z,100393.19
2023-04-23T07:31:26.211Z,100372.63
2023-04-23T07:33:56.484Z,100376.97
2023-04-23T07:36:26.834Z,100378.88
2023-04-23T07:38:59.436Z,100372.97
2023-04-23T07:41:32.067Z,100371.75
2023-04-23T07:44:02.027Z,100373.81
2023-04-23T07:46:32.367Z,100372.19
2023-04-23T07:49:02.364Z,100373.25
2023-04-23T07:51:32.343Z,100373.41
2023-04-23T07:54:02.387Z,100379.81
2023-04-23T07:56:35.404Z,100372.16
2023-04-23T07:59:05.493Z,100374.59
2023-04-23T08:01:36.092Z,100375.47
2023-04-23T08:04:06.230Z,100374.84
2023-04-23T08:06:39.628Z,100362.59
2023-04-23T08:09:10.086Z,100362.78
2023-04-23T08:11:42.743Z,100364.47
2023-04-23T08:14:12.892Z,100367.31
2023-04-23T08:16:42.768Z,100370.16
2023-04-23T08:19:12.764Z,100363.53
2023-04-23T08:21:42.776Z,100357.63
2023-04-23T08:24:12.773Z,100359.22
2023-04-23T08:26:45.332Z,100351.13
2023-04-23T08:29:15.346Z,100337.38
2023-04-23T08:31:45.428Z,100340.56
2023-04-23T08:34:15.805Z,100343.78
2023-04-23T08:36:46.609Z,100345.34
2023-04-23T08:39:19.099Z,100347.00
2023-04-23T08:41:57.858Z,100338.38
2023-04-23T08:44:29.485Z,100348.25
2023-04-23T08:47:01.195Z,100347.13
2023-04-23T08:49:36.660Z,100352.28
2023-04-23T08:52:17.947Z,100344.78
2023-04-23T08:54:52.366Z,100353.44
2023-04-23T08:57:25.698Z,100354.22
2023-04-23T08:59:56.372Z,100348.69
2023-04-23T09:02:27.361Z,100349.47
2023-04-23T09:04:57.736Z,100343.25
2023-04-23T09:07:28.019Z,100351.09
2023-04-23T09:09:57.848Z,100348.69
2023-04-23T09:12:30.913Z,100342.84
2023-04-23T09:15:00.935Z,100341.69
2023-04-23T09:17:33.103Z,100340.09
2023-04-23T09:20:04.168Z,100340.13
2023-04-23T09:22:47.076Z,100323.56
2023-04-23T09:25:19.594Z,100331.44
2023-04-23T09:27:54.311Z,100325.50
2023-04-23T09:30:25.883Z,100325.94
2023-04-23T09:32:58.295Z,100323.97
2023-04-23T09:35:31.616Z,100323.97
2023-04-23T09:38:08.170Z,100319.59
2023-04-23T09:40:39.072Z,100317.25
2023-04-23T09:43:14.039Z,100314.09
2023-04-23T09:45:51.681Z,100315.66
2023-04-23T09:48:21.670Z,100310.56
2023-04-23T09:50:51.604Z,100314.09
2023-04-23T09:53:24.361Z,100320.78
2023-04-23T09:55:56.499Z,100319.53
2023-04-23T09:58:29.210Z,100305.66
2023-04-23T10:01:10.491Z,100303.88
2023-04-23T10:03:46.231Z,100305.38
2023-04-23T10:06:36.387Z,100310.88
2023-04-23T10:09:08.388Z,100289.88
2023-04-23T10:11:38.465Z,100303.53
2023-04-23T10:14:12.124Z,100294.81
2023-04-23T10:16:49.128Z,100294.84
2023-04-23T10:19:22.837Z,100285.78
2023-04-23T10:22:02.352Z,100283.78
2023-04-23T10:24:43.819Z,100293.72
2023-04-23T10:27:27.004Z,100281.91
2023-04-23T10:30:10.827Z,100273.75
2023-04-23T10:32:41.949Z,100272.56
2023-04-23T10:35:13.111Z,100275.66
2023-04-23T10:37:43.536Z,100270.44
2023-04-23T10:40:16.529Z,100262.47
2023-04-23T10:42:47.635Z,100254.44
2023-04-23T10:45:25.437Z,100259.81
2023-04-23T10:47:58.081Z,100250.91
2023-04-23T10:50:30.162Z,100246.28
2023-04-23T10:53:01.074Z,100244.38
2023-04-23T10:55:33.004Z,100245.19
2023-04-23T10:58:05.449Z,100238.69
2023-04-23T11:00:49.163Z,100237.75
2023-04-23T11:03:32.430Z,100239.91
2023-04-23T11:06:05.171Z,100236.34
2023-04-23T11:08:37.815Z,100227.53
2023-04-23T11:11:11.338Z,100231.88
2023-04-23T11:13:54.564Z,100223.00
2023-04-23T11:16:27.289Z,100217.91
2023-04-23T11:19:06.848Z,100218.03
2023-04-23T11:22:01.770Z,100209.38
2023-04-23T11:24:33.467Z,100208.00
2023-04-23T11:27:04.540Z,100197.06
2023-04-23T11:29:34.435Z,100209.38
2023-04-23T11:32:10.993Z,100202.22
2023-04-23T11:34:43.660Z,100185.56
2023-04-23T11:37:15.811Z,100185.53
2023-04-23T11:39:47.815Z,100179.97
2023-04-23T11:42:20.438Z,100181.53
2023-04-23T11:44:50.993Z,100176.38
2023-04-23T11:47:23.836Z,100172.47
2023-04-23T11:49:53.732Z,100177.84
2023-04-23T11:52:23.719Z,100173.06
2023-04-23T11:54:53.587Z,100167.47
2023-04-23T11:57:24.834Z,100168.22
2023-04-23T11:59:56.906Z,100164.38
2023-04-23T12:02:29.985Z,100166.78
2023-04-23T12:04:59.993Z,100166.63
2023-04-23T12:07:38.356Z,100167.09
2023-04-23T12:10:09.462Z,100163.88
2023-04-23T12:12:40.650Z,100162.16
2023-04-23T12:15:11.649Z,100144.66
2023-04-23T12:17:46.827Z,100144.22
2023-04-23T12:20:21.396Z,100135.94
2023-04-23T12:22:51.720Z,100133.53
2023-04-23T12:25:25.741Z,100133.09
2023-04-23T12:27:55.628Z,100133.44
2023-04-23T12:30:25.779Z,100133.84
2023-04-23T12:33:02.695Z,100124.31
2023-04-23T12:35:43.135Z,100123.09
2023-04-23T12:38:27.530Z,100120.41
2023-04-23T12:40:58.581Z,100112.34
2023-04-23T12:43:30.194Z,100113.25
2023-04-23T12:46:00.220Z,100113.81
2023-04-23T12:48:33.382Z,100103.13
2023-04-23T12:51:04.987Z,100094.25
2023-04-23T12:53:34.913Z,100095.53
2023-04-23T12:56:05.295Z,100095.94
2023-04-23T12:58:35.246Z,100087.66
2023-04-23T13:01:05.290Z,100083.78
2023-04-23T13:03:37.814Z,100077.25
2023-04-23T13:06:08.220Z,100080.63
2023-04-23T13:08:38.310Z,100065.84
2023-04-23T13:11:08.528Z,100069.78
2023-04-23T13:13:38.381Z,100066.53
2023-04-23T13:16:08.684Z,100063.88
2023-04-23T13:18:41.327Z,100065.09
2023-04-23T13:21:12.727Z,100052.44
2023-04-23T13:23:42.559Z,100045.88
2023-04-23T13:26:12.610Z,100051.97
2023-04-23T13:28:43.024Z,100045.59
2023-04-23T13:31:15.415Z,100038.50
2023-04-23T13:33:47.950Z,100037.59
2023-04-23T13:36:17.895Z,100027.28
2023-04-23T13:38:47.821Z,100027.28
2023-04-23T13:41:17.727Z,100023.81
2023-04-23T13:43:47.627Z,100029.69
2023-04-23T13:46:17.603Z,100025.66
2023-04-23T13:48:50.145Z,100018.50
2023-04-23T13:51:34.134Z,100015.53
2023-04-23T13:54:05.149Z,100008.56
2023-04-23T13:56:37.182Z,100007.06
2023-04-23T13:59:18.420Z,100010.34
2023-04-23T14:01:50.353Z,100006.44
2023-04-23T14:04:25.536Z,99993.84
2023-04-23T14:06:55.908Z,100003.34
2023-04-23T14:09:26.151Z,99996.06
2023-04-23T14:11:56.379Z,99978.75
2023-04-23T14:14:26.295Z,99982.34
2023-04-23T14:16:56.229Z,99974.84
2023-04-23T14:19:30.648Z,99967.31
2023-04-23T14:22:00.633Z,99975.53
2023-04-23T14:24:37.548Z,99973.34
2023-04-23T14:27:07.715Z,99971.03
2023-04-23T14:29:43.268Z,99968.69
2023-04-23T14:32:13.986Z,99959.28
2023-04-23T14:34:47.529Z,99962.53
2023-04-23T14:37:17.781Z,99944.31
2023-04-23T14:39:47.724Z,99942.16
2023-04-23T14:42:18.013Z,99939.84
2023-04-23T14:44:47.943Z,99930.31
2023-04-23T14:47:19.600Z,99931.84
2023-04-23T14:49:53.394Z,99920.44
2023-04-23T14:52:26.125Z,99915.34
2023-04-23T14:54:56.183Z,99917.34
2023-04-23T14:57:26.364Z,99920.19
2023-04-23T14:59:56.698Z,99910.00
2023-04-23T15:02:27.139Z,99904.63
2023-04-23T15:04:59.991Z,99901.78
2023-04-23T15:07:31.993Z,99895.06
2023-04-23T15:10:06.475Z,99887.59
2023-04-23T15:12:53.409Z,99885.72
2023-04-23T15:15:48.500Z,99881.75
2023-04-23T15:18:19.217Z,99885.72
2023-04-23T15:20:51.777Z,99889.75
2023-04-23T15:23:22.342Z,99887.41
2023-04-23T15:25:52.714Z,99888.25
2023-04-23T15:28:23.785Z,99889.91
2023-04-23T15:30:53.746Z,99905.72
2023-04-23T15:33:23.626Z,99904.19
2023-04-23T15:35:59.839Z,99917.06
2023-04-23T15:38:30.900Z,99922.28
2023-04-23T15:41:01.281Z,99918.00
2023-04-23T15:43:31.653Z,99927.88
2023-04-23T15:46:01.733Z,99931.44
2023-04-23T15:48:31.742Z,99931.06
2023-04-23T15:51:04.388Z,99941.72
2023-04-23T15:53:34.381Z,99952.72
2023-04-23T15:56:05.098Z,99957.09
2023-04-23T15:58:35.071Z,99967.75
2023-04-23T16:01:07.628Z,99979.59
2023-04-23T16:03:37.880Z,99987.44
2023-04-23T16:06:12.043Z,99985.47
2023-04-23T16:08:42.631Z,99992.13
2023-04-23T16:11:13.526Z,99978.34
2023-04-23T16:13:43.506Z,99978.75
2023-04-23T16:16:13.438Z,99976.00
2023-04-23T16:18:43.503Z,99981.47
2023-04-23T16:21:16.450Z,99967.34
2023-04-23T16:23:46.392Z,99959.06
2023-04-23T16:26:16.303Z,99939.47
2023-04-23T16:28:51.853Z,99930.00
2023-04-23T16:31:31.019Z,99937.88
2023-04-23T16:34:01.296Z,99937.50
2023-04-23T16:36:37.221Z,99924.91
2023-04-23T16:39:07.275Z,99923.72
2023-04-23T16:41:37.276Z,99918.19
2023-04-23T16:44:07.224Z,99916.22
2023-04-23T16:46:37.438Z,99924.03
2023-04-23T16:49:07.737Z,99922.09
2023-04-23T16:51:40.324Z,99915.03
2023-04-23T16:54:10.301Z,99902.47
2023-04-23T16:56:40.339Z,99890.69
2023-04-23T16:59:10.215Z,99895.72
2023-04-23T17:01:40.318Z,99884.34
2023-04-23T17:04:10.801Z,99876.84
2023-04-23T17:06:43.506Z,99862.69
2023-04-23T17:09:13.452Z,99836.38
2023-04-23T17:11:43.296Z,99820.63
2023-04-23T17:14:13.325Z,99804.09
2023-04-23T17:16:43.686Z,99796.28
2023-04-23T17:19:13.861Z,99800.94
2023-04-23T17:21:46.746Z,99822.09
2023-04-23T17:24:16.790Z,99824.50
2023-04-23T17:26:48.476Z,99813.56
2023-04-23T17:29:18.439Z,99814.34
2023-04-23T17:31:48.599Z,99804.13
2023-04-23T17:34:18.783Z,99812.34
2023-04-23T17:36:51.642Z,99800.97
2023-04-23T17:39:23.891Z,99802.53
2023-04-23T17:41:53.940Z,99793.88
2023-04-23T17:44:23.984Z,99789.13
2023-04-23T17:46:55.574Z,99782.03
2023-04-23T17:49:25.522Z,99776.91
2023-04-23T17:51:58.140Z,99770.94
2023-04-23T17:54:29.064Z,99773.25
2023-04-23T17:56:59.346Z,99764.59
2023-04-23T17:59:29.360Z,99768.03
2023-04-23T18:01:59.476Z,99755.50
2023-04-23T18:04:30.719Z,99753.53
2023-04-23T18:07:03.449Z,99749.56
2023-04-23T18:09:33.529Z,99746.78
2023-04-23T18:12:04.303Z,99750.66
2023-04-23T18:14:34.303Z,99740.81
2023-04-23T18:17:04.382Z,99751.72
2023-04-23T18:19:34.479Z,99750.13
2023-04-23T18:22:08.481Z,99746.25
2023-04-23T18:24:38.616Z,99737.59
2023-04-23T18:27:08.630Z,99738.31
2023-04-23T18:29:38.750Z,99731.63
2023-04-23T18:32:08.868Z,99733.41
2023-04-23T18:34:41.995Z,99727.94
2023-04-23T18:37:35.628Z,99731.78
2023-04-23T18:40:05.938Z,99731.78
2023-04-23T18:42:35.931Z,99732.56
2023-04-23T18:45:06.318Z,99732.97
2023-04-23T18:47:44.368Z,99729.41
2023-04-23T18:50:33.683Z,99730.16
2023-04-23T18:53:06.419Z,99715.31
2023-04-23T18:55:38.214Z,99720.38
2023-04-23T18:58:08.981Z,99716.03
2023-04-23T19:00:40.470Z,99724.59
2023-04-23T19:03:23.665Z,99722.22
2023-04-23T19:05:55.728Z,99724.16
2023-04-23T19:08:29.044Z,99728.38
2023-04-23T19:10:59.575Z,99725.56
2023-04-23T19:13:29.579Z,99729.88
2023-04-23T19:15:59.803Z,99730.72
2023-04-23T19:18:31.117Z,99720.56
2023-04-23T19:21:01.339Z,99707.25
2023-04-23T19:23:33.888Z,99709.59
2023-04-23T19:26:04.133Z,99720.56
2023-04-23T19:28:34.822Z,99706.47
2023-04-23T19:31:06.863Z,99715.78
2023-04-23T19:33:37.756Z,99710.25
2023-04-23T19:36:08.250Z,99715.75
2023-04-23T19:38:42.549Z,99708.25
2023-04-23T19:41:12.599Z,99710.19
2023-04-23T19:43:42.744Z,99704.00
2023-04-23T19:46:12.866Z,99710.25
2023-04-23T19:48:42.805Z,99721.91
2023-04-23T19:51:12.852Z,99713.28
2023-04-23T19:53:45.557Z,99715.63
2023-04-23T19:56:15.721Z,99710.91
2023-04-23T19:58:46.087Z,99716.38
2023-04-23T20:01:16.239Z,99721.91
2023-04-23T20:03:48.122Z,99717.88
2023-04-23T20:06:18.195Z,99733.09
2023-04-23T20:09:07.841Z,99739.63
2023-04-23T20:11:38.573Z,99730.97
2023-04-23T20:14:08.637Z,99739.16
2023-04-23T20:16:39.024Z,99744.16
2023-04-23T20:19:11.778Z,99741.75
2023-04-23T20:21:42.946Z,99743.28
2023-04-23T20:24:16.950Z,99744.00
2023-04-23T20:26:46.907Z,99752.53
2023-04-23T20:29:17.210Z,99747.81
2023-04-23T20:31:49.657Z,99761.06
2023-04-23T20:34:21.528Z,99775.06
2023-04-23T20:36:51.424Z,99783.34
2023-04-23T20:39:24.509Z,99799.53
2023-04-23T20:41:55.171Z,99790.81
2023-04-23T20:44:26.322Z,99802.03
2023-04-23T20:46:58.046Z,99802.22
2023-04-23T20:49:28.234Z,99804.84
2023-04-23T20:51:58.153Z,99804.72
2023-04-23T20:54:31.332Z,99789.28
2023-04-23T20:57:02.570Z,99791.91
2023-04-23T20:59:32.915Z,99792.66
2023-04-23T21:02:04.068Z,99805.88
2023-04-23T21:04:34.075Z,99801.44
2023-04-23T21:07:04.308Z,99804.38
2023-04-23T21:09:37.170Z,99808.19
2023-04-23T21:12:07.759Z,99819.03
2023-04-23T21:14:37.653Z,99814.66
2023-04-23T21:17:07.638Z,99814.44
2023-04-23T21:19:37.589Z,99823.41
2023-04-23T21:22:08.897Z,99815.50
2023-04-23T21:24:41.628Z,99800.94
2023-04-23T21:27:12.568Z,99801.00
2023-04-23T21:29:42.757Z,99792.41
2023-04-23T21:32:13.038Z,99798.56
2023-04-23T21:34:43.142Z,99779.94
2023-04-23T21:37:13.238Z,99784.66
2023-04-23T21:39:46.046Z,99779.28
2023-04-23T21:42:16.343Z,99768.72
2023-04-23T21:44:46.456Z,99786.69
2023-04-23T21:47:16.770Z,99772.53
2023-04-23T21:49:46.841Z,99780.19
2023-04-23T21:52:17.635Z,99777.38
2023-04-23T21:54:50.333Z,99780.19
2023-04-23T21:57:20.274Z,99771.38
2023-04-23T21:59:50.518Z,99772.75
2023-04-23T22:02:20.571Z,99781.25
2023-04-23T22:04:50.692Z,99779.63
2023-04-23T22:07:21.052Z,99796.78
2023-04-23T22:09:53.634Z,99784.28
2023-04-23T22:12:23.757Z,99784.63
2023-04-23T22:14:54.096Z,99775.47
2023-04-23T22:17:26.477Z,99777.06
2023-04-23T22:19:57.267Z,99775.03
2023-04-23T22:22:27.219Z,99787.66
2023-04-23T22:24:59.799Z,99781.34
2023-04-23T22:27:34.751Z,99779.06
2023-04-23T22:30:06.834Z,99779.94
2023-04-23T22:32:36.883Z,99781.41
2023-04-23T22:35:08.093Z,99778.50
2023-04-23T22:37:38.592Z,99782.06
2023-04-23T22:40:13.073Z,99778.34
2023-04-23T22:42:42.943Z,99778.41
2023-04-23T22:45:13.772Z,99778.41
2023-04-23T22:47:44.228Z,99778.00
2023-04-23T22:50:14.528Z,99791.69
2023-04-23T22:52:48.021Z,99779.19
2023-04-23T22:55:20.883Z,99775.19
2023-04-23T22:57:51.385Z,99788.53
2023-04-23T23:00:21.357Z,99783.97
2023-04-23T23:02:51.326Z,99795.56
2023-04-23T23:05:21.638Z,99779.16
2023-04-23T23:07:52.126Z,99786.22
2023-04-23T23:10:24.623Z,99783.44
2023-04-23T23:12:54.489Z,99777.47
2023-04-23T23:15:24.787Z,99792.75
2023-04-23T23:17:54.778Z,99783.41
2023-04-23T23:20:24.886Z,99771.72
2023-04-23T23:22:54.816Z,99773.72
2023-04-23T23:25:27.334Z,99780.31
2023-04-23T23:27:57.289Z,99770.50
2023-04-23T23:30:27.344Z,99774.28
2023-04-23T23:32:59.917Z,99779.31
2023-04-23T23:35:30.185Z,99772.34
2023-04-23T23:38:00.114Z,99770.34
2023-04-23T23:40:32.797Z,99771.16
2023-04-23T23:43:02.669Z,99765.19
2023-04-23T23:45:32.722Z,99771.00
2023-04-23T23:48:02.732Z,99780.56
2023-04-23T23:50:32.704Z,99785.31
2023-04-23T23:53:02.661Z,99766.53
2023-04-23T23:55:37.891Z,99783.66
2023-04-23T23:58:07.774Z,99786.97
